sensor_id;sensor_type;location;lat;lon;timestamp;temperature;humidity
21811;DHT22;11067;48.788;9.208;2023-01-09T00:01:42;8.10;99.90
21811;DHT22;11067;48.788;9.208;2023-01-09T00:04:08;8.10;99.90
21811;DHT22;11067;48.788;9.208;2023-01-09T00:06:34;8.10;99.90
21811;DHT22;11067;48.788;9.208;2023-01-09T00:09:00;8.10;99.90
21811;DHT22;11067;48.788;9.208;2023-01-09T00:11:25;8.10;99.90
21811;DHT22;11067;48.788;9.208;2023-01-09T00:13:51;8.10;99.90
21811;DHT22;11067;48.788;9.208;2023-01-09T00:16:17;8.10;99.90
21811;DHT22;11067;48.788;9.208;2023-01-09T00:18:42;8.10;99.90
21811;DHT22;11067;48.788;9.208;2023-01-09T00:21:09;8.10;99.90
21811;DHT22;11067;48.788;9.208;2023-01-09T00:23:35;8.10;99.90
21811;DHT22;11067;48.788;9.208;2023-01-09T00:26:11;8.10;99.90
21811;DHT22;11067;48.788;9.208;2023-01-09T00:28:37;8.10;99.90
21811;DHT22;11067;48.788;9.208;2023-01-09T00:31:05;8.10;99.90
21811;DHT22;11067;48.788;9.208;2023-01-09T00:33:33;8.10;99.90
21811;DHT22;11067;48.788;9.208;2023-01-09T00:35:59;8.20;99.90
21811;DHT22;11067;48.788;9.208;2023-01-09T00:38:25;8.20;99.90
21811;DHT22;11067;48.788;9.208;2023-01-09T00:40:51;8.20;99.90
21811;DHT22;11067;48.788;9.208;2023-01-09T00:43:19;8.20;99.90
21811;DHT22;11067;48.788;9.208;2023-01-09T00:45:44;8.10;99.90
21811;DHT22;11067;48.788;9.208;2023-01-09T00:48:17;8.20;99.90
21811;DHT22;11067;48.788;9.208;2023-01-09T00:50:49;8.20;99.90
21811;DHT22;11067;48.788;9.208;2023-01-09T00:53:18;8.20;99.90
21811;DHT22;11067;48.788;9.208;2023-01-09T00:55:45;8.20;99.90
21811;DHT22;11067;48.788;9.208;2023-01-09T00:58:10;8.20;99.90
21811;DHT22;11067;48.788;9.208;2023-01-09T01:00:36;8.20;99.90
21811;DHT22;11067;48.788;9.208;2023-01-09T01:03:01;8.20;99.90
21811;DHT22;11067;48.788;9.208;2023-01-09T01:05:27;8.20;99.90
21811;DHT22;11067;48.788;9.208;2023-01-09T01:08:15;8.20;99.90
21811;DHT22;11067;48.788;9.208;2023-01-09T01:10:42;8.30;99.90
21811;DHT22;11067;48.788;9.208;2023-01-09T01:13:07;8.30;99.90
21811;DHT22;11067;48.788;9.208;2023-01-09T01:15:33;8.30;99.90
21811;DHT22;11067;48.788;9.208;2023-01-09T01:17:59;8.30;99.90
21811;DHT22;11067;48.788;9.208;2023-01-09T01:20:24;8.30;99.90
21811;DHT22;11067;48.788;9.208;2023-01-09T01:22:50;8.30;99.90
21811;DHT22;11067;48.788;9.208;2023-01-09T01:25:16;8.30;99.90
21811;DHT22;11067;48.788;9.208;2023-01-09T01:27:42;8.40;99.90
21811;DHT22;11067;48.788;9.208;2023-01-09T01:30:11;8.40;99.90
21811;DHT22;11067;48.788;9.208;2023-01-09T01:32:38;8.40;99.90
21811;DHT22;11067;48.788;9.208;2023-01-09T01:35:04;8.40;99.90
21811;DHT22;11067;48.788;9.208;2023-01-09T01:37:30;8.50;99.90
21811;DHT22;11067;48.788;9.208;2023-01-09T01:39:56;8.40;99.90
21811;DHT22;11067;48.788;9.208;2023-01-09T01:42:21;8.50;99.90
21811;DHT22;11067;48.788;9.208;2023-01-09T01:47:35;8.60;99.90
21811;DHT22;11067;48.788;9.208;2023-01-09T01:50:05;8.50;99.90
21811;DHT22;11067;48.788;9.208;2023-01-09T01:52:33;8.50;99.90
21811;DHT22;11067;48.788;9.208;2023-01-09T01:55:00;8.50;99.90
21811;DHT22;11067;48.788;9.208;2023-01-09T01:57:26;8.50;99.90
21811;DHT22;11067;48.788;9.208;2023-01-09T01:59:55;8.50;99.90
21811;DHT22;11067;48.788;9.208;2023-01-09T02:02:26;8.50;99.90
21811;DHT22;11067;48.788;9.208;2023-01-09T02:04:55;8.50;99.90
21811;DHT22;11067;48.788;9.208;2023-01-09T02:07:21;8.50;99.90
21811;DHT22;11067;48.788;9.208;2023-01-09T02:09:47;8.50;99.90
21811;DHT22;11067;48.788;9.208;2023-01-09T02:12:19;8.60;99.90
21811;DHT22;11067;48.788;9.208;2023-01-09T02:14:48;8.60;99.90
21811;DHT22;11067;48.788;9.208;2023-01-09T02:17:37;8.60;99.90
21811;DHT22;11067;48.788;9.208;2023-01-09T02:29:03;8.50;99.90
21811;DHT22;11067;48.788;9.208;2023-01-09T02:31:58;8.50;99.90
21811;DHT22;11067;48.788;9.208;2023-01-09T02:34:46;8.50;99.90
21811;DHT22;11067;48.788;9.208;2023-01-09T02:37:30;8.40;99.90
21811;DHT22;11067;48.788;9.208;2023-01-09T02:40:08;8.40;99.90
21811;DHT22;11067;48.788;9.208;2023-01-09T02:42:40;8.40;99.90
21811;DHT22;11067;48.788;9.208;2023-01-09T02:45:07;8.40;99.90
21811;DHT22;11067;48.788;9.208;2023-01-09T02:47:38;8.50;99.90
21811;DHT22;11067;48.788;9.208;2023-01-09T02:50:07;8.50;99.90
21811;DHT22;11067;48.788;9.208;2023-01-09T02:53:09;8.50;99.90
21811;DHT22;11067;48.788;9.208;2023-01-09T03:01:35;8.40;99.90
21811;DHT22;11067;48.788;9.208;2023-01-09T03:04:31;8.40;99.90
21811;DHT22;11067;48.788;9.208;2023-01-09T03:07:33;8.50;99.90
21811;DHT22;11067;48.788;9.208;2023-01-09T03:10:02;8.50;99.90
21811;DHT22;11067;48.788;9.208;2023-01-09T03:12:31;8.60;99.90
21811;DHT22;11067;48.788;9.208;2023-01-09T03:14:59;8.50;99.90
21811;DHT22;11067;48.788;9.208;2023-01-09T03:17:29;8.50;99.90
21811;DHT22;11067;48.788;9.208;2023-01-09T03:19:58;8.50;99.90
21811;DHT22;11067;48.788;9.208;2023-01-09T03:22:25;8.40;99.90
21811;DHT22;11067;48.788;9.208;2023-01-09T03:24:51;8.40;99.90
21811;DHT22;11067;48.788;9.208;2023-01-09T03:27:16;8.30;99.90
21811;DHT22;11067;48.788;9.208;2023-01-09T03:29:42;8.30;99.90
21811;DHT22;11067;48.788;9.208;2023-01-09T03:32:08;8.20;99.90
21811;DHT22;11067;48.788;9.208;2023-01-09T03:34:33;8.20;99.90
21811;DHT22;11067;48.788;9.208;2023-01-09T03:36:59;8.10;99.90
21811;DHT22;11067;48.788;9.208;2023-01-09T03:39:24;8.10;99.90
21811;DHT22;11067;48.788;9.208;2023-01-09T03:41:50;8.10;99.90
21811;DHT22;11067;48.788;9.208;2023-01-09T03:44:15;8.00;99.90
21811;DHT22;11067;48.788;9.208;2023-01-09T03:46:41;8.00;99.90
21811;DHT22;11067;48.788;9.208;2023-01-09T03:49:06;8.00;99.90
21811;DHT22;11067;48.788;9.208;2023-01-09T03:51:32;8.00;99.90
21811;DHT22;11067;48.788;9.208;2023-01-09T03:53:57;8.00;99.90
21811;DHT22;11067;48.788;9.208;2023-01-09T03:56:23;8.00;99.90
21811;DHT22;11067;48.788;9.208;2023-01-09T03:58:49;8.00;99.90
21811;DHT22;11067;48.788;9.208;2023-01-09T04:01:17;8.00;99.90
21811;DHT22;11067;48.788;9.208;2023-01-09T04:03:42;7.90;99.90
21811;DHT22;11067;48.788;9.208;2023-01-09T04:06:08;7.90;99.90
21811;DHT22;11067;48.788;9.208;2023-01-09T04:08:33;8.00;99.90
21811;DHT22;11067;48.788;9.208;2023-01-09T04:10:59;7.90;99.90
21811;DHT22;11067;48.788;9.208;2023-01-09T04:13:24;7.90;99.90
21811;DHT22;11067;48.788;9.208;2023-01-09T04:15:50;7.90;99.90
21811;DHT22;11067;48.788;9.208;2023-01-09T04:18:15;7.90;99.90
21811;DHT22;11067;48.788;9.208;2023-01-09T04:20:41;7.80;99.90
21811;DHT22;11067;48.788;9.208;2023-01-09T04:23:07;7.90;99.90
21811;DHT22;11067;48.788;9.208;2023-01-09T04:25:33;7.90;99.90
21811;DHT22;11067;48.788;9.208;2023-01-09T04:27:58;7.90;99.90
21811;DHT22;11067;48.788;9.208;2023-01-09T04:30:24;7.80;99.90
21811;DHT22;11067;48.788;9.208;2023-01-09T04:32:50;7.80;99.90
21811;DHT22;11067;48.788;9.208;2023-01-09T04:35:17;7.70;99.90
21811;DHT22;11067;48.788;9.208;2023-01-09T04:37:42;7.60;99.90
21811;DHT22;11067;48.788;9.208;2023-01-09T04:40:09;7.60;99.90
21811;DHT22;11067;48.788;9.208;2023-01-09T04:42:35;7.50;99.90
21811;DHT22;11067;48.788;9.208;2023-01-09T04:45:01;7.50;99.90
21811;DHT22;11067;48.788;9.208;2023-01-09T04:47:27;7.40;99.90
21811;DHT22;11067;48.788;9.208;2023-01-09T04:49:52;7.50;99.90
21811;DHT22;11067;48.788;9.208;2023-01-09T04:52:18;7.40;99.90
21811;DHT22;11067;48.788;9.208;2023-01-09T04:54:43;7.40;99.90
21811;DHT22;11067;48.788;9.208;2023-01-09T04:57:09;7.40;99.90
21811;DHT22;11067;48.788;9.208;2023-01-09T04:59:34;7.30;99.90
21811;DHT22;11067;48.788;9.208;2023-01-09T05:02:00;7.30;99.90
21811;DHT22;11067;48.788;9.208;2023-01-09T05:04:25;7.40;99.90
21811;DHT22;11067;48.788;9.208;2023-01-09T05:06:51;7.30;99.90
21811;DHT22;11067;48.788;9.208;2023-01-09T05:09:17;7.30;99.90
21811;DHT22;11067;48.788;9.208;2023-01-09T05:11:42;7.30;99.90
21811;DHT22;11067;48.788;9.208;2023-01-09T05:14:08;7.20;99.90
21811;DHT22;11067;48.788;9.208;2023-01-09T05:16:34;7.30;99.90
21811;DHT22;11067;48.788;9.208;2023-01-09T05:19:00;7.20;99.90
21811;DHT22;11067;48.788;9.208;2023-01-09T05:21:26;7.30;99.90
21811;DHT22;11067;48.788;9.208;2023-01-09T05:23:52;7.30;99.90
21811;DHT22;11067;48.788;9.208;2023-01-09T05:26:21;7.20;99.90
21811;DHT22;11067;48.788;9.208;2023-01-09T05:28:53;7.20;99.90
21811;DHT22;11067;48.788;9.208;2023-01-09T05:31:21;7.10;99.90
21811;DHT22;11067;48.788;9.208;2023-01-09T05:33:48;7.20;99.90
21811;DHT22;11067;48.788;9.208;2023-01-09T05:36:13;7.20;99.90
21811;DHT22;11067;48.788;9.208;2023-01-09T05:38:39;7.10;99.90
21811;DHT22;11067;48.788;9.208;2023-01-09T05:41:05;7.10;99.90
21811;DHT22;11067;48.788;9.208;2023-01-09T05:43:31;7.10;99.90
21811;DHT22;11067;48.788;9.208;2023-01-09T05:45:56;7.10;99.90
21811;DHT22;11067;48.788;9.208;2023-01-09T05:48:22;7.00;99.90
21811;DHT22;11067;48.788;9.208;2023-01-09T05:50:47;7.00;99.90
21811;DHT22;11067;48.788;9.208;2023-01-09T05:53:13;6.90;99.90
21811;DHT22;11067;48.788;9.208;2023-01-09T05:55:38;6.90;99.90
21811;DHT22;11067;48.788;9.208;2023-01-09T05:58:04;6.80;99.90
21811;DHT22;11067;48.788;9.208;2023-01-09T06:00:30;6.70;99.90
21811;DHT22;11067;48.788;9.208;2023-01-09T06:02:55;6.80;99.90
21811;DHT22;11067;48.788;9.208;2023-01-09T06:05:21;6.70;99.90
21811;DHT22;11067;48.788;9.208;2023-01-09T06:07:46;6.70;99.90
21811;DHT22;11067;48.788;9.208;2023-01-09T06:10:13;6.60;99.90
21811;DHT22;11067;48.788;9.208;2023-01-09T06:12:39;6.60;99.90
21811;DHT22;11067;48.788;9.208;2023-01-09T06:15:05;6.60;99.90
21811;DHT22;11067;48.788;9.208;2023-01-09T06:17:31;6.50;99.90
21811;DHT22;11067;48.788;9.208;2023-01-09T06:19:56;6.60;99.90
21811;DHT22;11067;48.788;9.208;2023-01-09T06:22:22;6.50;99.90
21811;DHT22;11067;48.788;9.208;2023-01-09T06:24:47;6.50;99.90
21811;DHT22;11067;48.788;9.208;2023-01-09T06:27:13;6.50;99.90
21811;DHT22;11067;48.788;9.208;2023-01-09T06:29:39;6.50;99.90
21811;DHT22;11067;48.788;9.208;2023-01-09T06:32:05;6.50;99.90
21811;DHT22;11067;48.788;9.208;2023-01-09T06:34:30;6.50;99.90
21811;DHT22;11067;48.788;9.208;2023-01-09T06:36:56;6.50;99.90
21811;DHT22;11067;48.788;9.208;2023-01-09T06:39:21;6.50;99.90
21811;DHT22;11067;48.788;9.208;2023-01-09T06:41:47;6.50;99.90
21811;DHT22;11067;48.788;9.208;2023-01-09T06:44:12;6.30;99.90
21811;DHT22;11067;48.788;9.208;2023-01-09T06:46:38;6.30;99.90
21811;DHT22;11067;48.788;9.208;2023-01-09T06:49:04;6.20;99.90
21811;DHT22;11067;48.788;9.208;2023-01-09T06:51:29;6.20;99.90
21811;DHT22;11067;48.788;9.208;2023-01-09T06:53:55;6.20;99.90
21811;DHT22;11067;48.788;9.208;2023-01-09T06:56:21;6.20;99.90
21811;DHT22;11067;48.788;9.208;2023-01-09T06:58:46;6.20;99.90
21811;DHT22;11067;48.788;9.208;2023-01-09T07:01:12;6.10;99.90
21811;DHT22;11067;48.788;9.208;2023-01-09T07:03:37;6.10;99.90
21811;DHT22;11067;48.788;9.208;2023-01-09T07:06:03;6.20;99.90
21811;DHT22;11067;48.788;9.208;2023-01-09T07:08:29;6.10;99.90
21811;DHT22;11067;48.788;9.208;2023-01-09T07:10:54;6.20;99.90
21811;DHT22;11067;48.788;9.208;2023-01-09T07:13:20;6.20;99.90
21811;DHT22;11067;48.788;9.208;2023-01-09T07:15:45;6.20;99.90
21811;DHT22;11067;48.788;9.208;2023-01-09T07:18:11;6.20;99.90
21811;DHT22;11067;48.788;9.208;2023-01-09T07:20:40;6.30;99.90
21811;DHT22;11067;48.788;9.208;2023-01-09T07:23:08;6.30;99.90
21811;DHT22;11067;48.788;9.208;2023-01-09T07:25:35;6.30;99.90
21811;DHT22;11067;48.788;9.208;2023-01-09T07:28:00;6.30;99.90
21811;DHT22;11067;48.788;9.208;2023-01-09T07:30:26;6.30;99.90
21811;DHT22;11067;48.788;9.208;2023-01-09T07:32:52;6.30;99.90
21811;DHT22;11067;48.788;9.208;2023-01-09T07:35:17;6.30;99.90
21811;DHT22;11067;48.788;9.208;2023-01-09T07:37:43;6.40;99.90
21811;DHT22;11067;48.788;9.208;2023-01-09T07:40:10;6.50;99.90
21811;DHT22;11067;48.788;9.208;2023-01-09T07:42:36;6.50;99.90
21811;DHT22;11067;48.788;9.208;2023-01-09T07:45:01;6.50;99.90
21811;DHT22;11067;48.788;9.208;2023-01-09T07:47:27;6.50;99.90
21811;DHT22;11067;48.788;9.208;2023-01-09T07:49:52;6.50;99.90
21811;DHT22;11067;48.788;9.208;2023-01-09T07:52:18;6.40;99.90
21811;DHT22;11067;48.788;9.208;2023-01-09T07:54:43;6.40;99.90
21811;DHT22;11067;48.788;9.208;2023-01-09T07:57:09;6.30;99.90
21811;DHT22;11067;48.788;9.208;2023-01-09T07:59:34;6.20;99.90
21811;DHT22;11067;48.788;9.208;2023-01-09T08:02:00;6.10;99.90
21811;DHT22;11067;48.788;9.208;2023-01-09T08:04:26;6.20;99.90
21811;DHT22;11067;48.788;9.208;2023-01-09T08:06:52;6.20;99.90
21811;DHT22;11067;48.788;9.208;2023-01-09T08:09:17;6.30;99.90
21811;DHT22;11067;48.788;9.208;2023-01-09T08:11:43;6.40;99.90
21811;DHT22;11067;48.788;9.208;2023-01-09T08:14:09;6.40;99.90
21811;DHT22;11067;48.788;9.208;2023-01-09T08:16:34;6.50;99.90
21811;DHT22;11067;48.788;9.208;2023-01-09T08:19:00;6.70;99.90
21811;DHT22;11067;48.788;9.208;2023-01-09T08:21:25;6.80;99.90
21811;DHT22;11067;48.788;9.208;2023-01-09T08:23:51;7.00;99.90
21811;DHT22;11067;48.788;9.208;2023-01-09T08:26:16;7.20;99.90
21811;DHT22;11067;48.788;9.208;2023-01-09T08:28:43;7.30;99.90
21811;DHT22;11067;48.788;9.208;2023-01-09T08:31:09;7.50;99.90
21811;DHT22;11067;48.788;9.208;2023-01-09T08:33:35;7.50;99.90
21811;DHT22;11067;48.788;9.208;2023-01-09T08:36:00;7.50;99.90
21811;DHT22;11067;48.788;9.208;2023-01-09T08:38:26;7.60;99.90
21811;DHT22;11067;48.788;9.208;2023-01-09T08:40:51;7.50;99.90
21811;DHT22;11067;48.788;9.208;2023-01-09T08:43:17;7.40;99.90
21811;DHT22;11067;48.788;9.208;2023-01-09T08:46:01;7.50;99.90
21811;DHT22;11067;48.788;9.208;2023-01-09T08:48:45;7.50;99.90
21811;DHT22;11067;48.788;9.208;2023-01-09T08:51:12;7.50;99.90
21811;DHT22;11067;48.788;9.208;2023-01-09T08:53:38;7.50;99.90
21811;DHT22;11067;48.788;9.208;2023-01-09T08:56:03;7.50;99.90
21811;DHT22;11067;48.788;9.208;2023-01-09T08:58:29;7.60;99.90
21811;DHT22;11067;48.788;9.208;2023-01-09T09:00:55;7.70;99.90
21811;DHT22;11067;48.788;9.208;2023-01-09T09:03:21;7.80;99.90
21811;DHT22;11067;48.788;9.208;2023-01-09T09:05:47;7.80;99.90
21811;DHT22;11067;48.788;9.208;2023-01-09T09:08:12;7.90;99.90
21811;DHT22;11067;48.788;9.208;2023-01-09T09:10:38;7.90;99.90
21811;DHT22;11067;48.788;9.208;2023-01-09T09:13:03;7.90;99.90
21811;DHT22;11067;48.788;9.208;2023-01-09T09:15:29;7.80;99.90
21811;DHT22;11067;48.788;9.208;2023-01-09T09:17:57;7.90;99.90
21811;DHT22;11067;48.788;9.208;2023-01-09T09:20:26;7.80;99.90
21811;DHT22;11067;48.788;9.208;2023-01-09T09:22:55;7.90;99.90
21811;DHT22;11067;48.788;9.208;2023-01-09T09:25:21;8.00;99.90
21811;DHT22;11067;48.788;9.208;2023-01-09T09:27:47;8.00;99.90
21811;DHT22;11067;48.788;9.208;2023-01-09T09:30:14;8.00;99.90
21811;DHT22;11067;48.788;9.208;2023-01-09T09:32:41;8.00;99.90
21811;DHT22;11067;48.788;9.208;2023-01-09T09:35:06;8.00;99.90
21811;DHT22;11067;48.788;9.208;2023-01-09T09:37:32;8.20;99.90
21811;DHT22;11067;48.788;9.208;2023-01-09T09:39:58;8.30;99.90
21811;DHT22;11067;48.788;9.208;2023-01-09T09:42:46;8.30;99.90
21811;DHT22;11067;48.788;9.208;2023-01-09T09:45:49;8.30;99.90
21811;DHT22;11067;48.788;9.208;2023-01-09T09:54:26;8.60;99.90
21811;DHT22;11067;48.788;9.208;2023-01-09T09:56:56;8.80;99.90
21811;DHT22;11067;48.788;9.208;2023-01-09T09:59:34;8.90;99.90
21811;DHT22;11067;48.788;9.208;2023-01-09T10:02:20;8.90;99.90
21811;DHT22;11067;48.788;9.208;2023-01-09T10:04:55;8.80;99.90
21811;DHT22;11067;48.788;9.208;2023-01-09T10:07:25;8.70;99.90
21811;DHT22;11067;48.788;9.208;2023-01-09T10:09:58;8.80;99.90
21811;DHT22;11067;48.788;9.208;2023-01-09T10:12:27;8.90;99.90
21811;DHT22;11067;48.788;9.208;2023-01-09T10:15:00;8.90;99.90
21811;DHT22;11067;48.788;9.208;2023-01-09T10:25:43;9.10;99.90
21811;DHT22;11067;48.788;9.208;2023-01-09T10:28:28;9.20;99.90
21811;DHT22;11067;48.788;9.208;2023-01-09T10:31:27;9.20;99.90
21811;DHT22;11067;48.788;9.208;2023-01-09T10:39:24;9.10;99.90
21811;DHT22;11067;48.788;9.208;2023-01-09T10:41:59;9.00;99.90
21811;DHT22;11067;48.788;9.208;2023-01-09T10:44:28;9.10;99.90
21811;DHT22;11067;48.788;9.208;2023-01-09T10:47:01;9.00;99.90
21811;DHT22;11067;48.788;9.208;2023-01-09T10:49:28;9.10;99.90
21811;DHT22;11067;48.788;9.208;2023-01-09T10:52:13;8.90;99.90
21811;DHT22;11067;48.788;9.208;2023-01-09T10:55:26;9.00;99.90
21811;DHT22;11067;48.788;9.208;2023-01-09T10:57:39;9.10;99.90
21811;DHT22;11067;48.788;9.208;2023-01-09T11:00:16;9.30;99.90
21811;DHT22;11067;48.788;9.208;2023-01-09T11:02:43;9.20;99.90
21811;DHT22;11067;48.788;9.208;2023-01-09T11:05:14;9.10;99.90
21811;DHT22;11067;48.788;9.208;2023-01-09T11:07:44;9.20;99.90
21811;DHT22;11067;48.788;9.208;2023-01-09T11:10:12;9.30;99.90
21811;DHT22;11067;48.788;9.208;2023-01-09T11:12:38;9.40;99.90
21811;DHT22;11067;48.788;9.208;2023-01-09T11:15:21;9.40;99.90
21811;DHT22;11067;48.788;9.208;2023-01-09T11:17:56;9.50;99.90
21811;DHT22;11067;48.788;9.208;2023-01-09T11:20:27;9.50;99.90
21811;DHT22;11067;48.788;9.208;2023-01-09T11:22:57;9.70;99.90
21811;DHT22;11067;48.788;9.208;2023-01-09T11:25:26;9.40;99.90
21811;DHT22;11067;48.788;9.208;2023-01-09T11:30:28;9.20;99.90
21811;DHT22;11067;48.788;9.208;2023-01-09T11:32:55;9.40;99.90
21811;DHT22;11067;48.788;9.208;2023-01-09T11:35:24;9.60;99.90
21811;DHT22;11067;48.788;9.208;2023-01-09T11:38:06;9.70;99.90
21811;DHT22;11067;48.788;9.208;2023-01-09T11:40:44;9.80;99.90
21811;DHT22;11067;48.788;9.208;2023-01-09T11:43:21;9.80;99.90
21811;DHT22;11067;48.788;9.208;2023-01-09T11:45:52;10.00;99.90
21811;DHT22;11067;48.788;9.208;2023-01-09T11:48:27;10.10;99.90
21811;DHT22;11067;48.788;9.208;2023-01-09T11:50:56;10.00;99.90
21811;DHT22;11067;48.788;9.208;2023-01-09T11:53:22;10.00;99.90
21811;DHT22;11067;48.788;9.208;2023-01-09T11:56:01;9.90;99.90
21811;DHT22;11067;48.788;9.208;2023-01-09T11:58:31;9.60;99.90
21811;DHT22;11067;48.788;9.208;2023-01-09T12:09:40;10.00;99.90
21811;DHT22;11067;48.788;9.208;2023-01-09T12:15:24;9.80;99.90
21811;DHT22;11067;48.788;9.208;2023-01-09T12:26:30;9.80;99.90
21811;DHT22;11067;48.788;9.208;2023-01-09T12:37:36;9.70;99.90
21811;DHT22;11067;48.788;9.208;2023-01-09T12:42:54;9.60;99.90
21811;DHT22;11067;48.788;9.208;2023-01-09T12:51:36;9.50;99.90
21811;DHT22;11067;48.788;9.208;2023-01-09T12:54:24;9.30;99.90
21811;DHT22;11067;48.788;9.208;2023-01-09T12:56:54;9.40;99.90
21811;DHT22;11067;48.788;9.208;2023-01-09T12:59:44;9.30;99.90
21811;DHT22;11067;48.788;9.208;2023-01-09T13:02:30;9.40;99.90
21811;DHT22;11067;48.788;9.208;2023-01-09T13:04:58;9.40;99.90
21811;DHT22;11067;48.788;9.208;2023-01-09T13:07:39;9.20;99.90
21811;DHT22;11067;48.788;9.208;2023-01-09T13:12:45;9.30;99.90
21811;DHT22;11067;48.788;9.208;2023-01-09T13:15:31;9.30;99.90
21811;DHT22;11067;48.788;9.208;2023-01-09T13:18:10;9.30;99.90
21811;DHT22;11067;48.788;9.208;2023-01-09T13:20:48;9.40;99.90
21811;DHT22;11067;48.788;9.208;2023-01-09T13:23:32;9.40;99.90
21811;DHT22;11067;48.788;9.208;2023-01-09T13:26:03;9.50;99.90
21811;DHT22;11067;48.788;9.208;2023-01-09T13:28:47;9.40;99.90
21811;DHT22;11067;48.788;9.208;2023-01-09T13:34:05;9.30;99.90
21811;DHT22;11067;48.788;9.208;2023-01-09T13:36:38;9.20;99.90
21811;DHT22;11067;48.788;9.208;2023-01-09T13:39:04;9.00;99.90
21811;DHT22;11067;48.788;9.208;2023-01-09T13:41:30;9.20;99.90
21811;DHT22;11067;48.788;9.208;2023-01-09T13:46:48;9.10;99.90
21811;DHT22;11067;48.788;9.208;2023-01-09T13:49:28;9.10;99.90
21811;DHT22;11067;48.788;9.208;2023-01-09T13:52:00;9.20;99.90
21811;DHT22;11067;48.788;9.208;2023-01-09T13:59:44;9.30;99.90
21811;DHT22;11067;48.788;9.208;2023-01-09T14:07:36;9.10;99.90
21811;DHT22;11067;48.788;9.208;2023-01-09T14:10:06;9.10;99.90
21811;DHT22;11067;48.788;9.208;2023-01-09T14:12:39;9.10;99.90
21811;DHT22;11067;48.788;9.208;2023-01-09T14:15:06;9.00;99.90
21811;DHT22;11067;48.788;9.208;2023-01-09T14:17:46;9.00;99.90
21811;DHT22;11067;48.788;9.208;2023-01-09T14:20:27;9.00;99.90
21811;DHT22;11067;48.788;9.208;2023-01-09T14:22:57;8.90;99.90
21811;DHT22;11067;48.788;9.208;2023-01-09T14:25:25;8.90;99.90
21811;DHT22;11067;48.788;9.208;2023-01-09T14:30:38;8.90;99.90
21811;DHT22;11067;48.788;9.208;2023-01-09T14:41:15;8.90;99.90
21811;DHT22;11067;48.788;9.208;2023-01-09T14:44:02;8.80;99.90
21811;DHT22;11067;48.788;9.208;2023-01-09T14:46:33;8.60;99.90
21811;DHT22;11067;48.788;9.208;2023-01-09T14:49:06;8.60;99.90
21811;DHT22;11067;48.788;9.208;2023-01-09T14:51:41;8.50;99.90
21811;DHT22;11067;48.788;9.208;2023-01-09T14:54:33;8.40;99.90
21811;DHT22;11067;48.788;9.208;2023-01-09T14:57:00;8.40;99.90
21811;DHT22;11067;48.788;9.208;2023-01-09T14:59:28;8.30;99.90
21811;DHT22;11067;48.788;9.208;2023-01-09T15:01:54;8.20;99.90
21811;DHT22;11067;48.788;9.208;2023-01-09T15:04:31;8.20;99.90
21811;DHT22;11067;48.788;9.208;2023-01-09T15:07:00;8.20;99.90
21811;DHT22;11067;48.788;9.208;2023-01-09T15:09:46;8.20;99.90
21811;DHT22;11067;48.788;9.208;2023-01-09T15:12:19;8.10;99.90
21811;DHT22;11067;48.788;9.208;2023-01-09T15:14:50;8.00;99.90
21811;DHT22;11067;48.788;9.208;2023-01-09T15:17:24;8.00;99.90
21811;DHT22;11067;48.788;9.208;2023-01-09T15:19:50;8.10;99.90
21811;DHT22;11067;48.788;9.208;2023-01-09T15:22:28;8.00;99.90
21811;DHT22;11067;48.788;9.208;2023-01-09T15:24:53;8.10;99.90
21811;DHT22;11067;48.788;9.208;2023-01-09T15:27:19;8.10;99.90
21811;DHT22;11067;48.788;9.208;2023-01-09T15:29:47;8.10;99.90
21811;DHT22;11067;48.788;9.208;2023-01-09T15:32:25;8.10;99.90
21811;DHT22;11067;48.788;9.208;2023-01-09T15:34:53;8.20;99.90
21811;DHT22;11067;48.788;9.208;2023-01-09T15:37:34;8.20;99.90
21811;DHT22;11067;48.788;9.208;2023-01-09T15:40:03;8.30;99.90
21811;DHT22;11067;48.788;9.208;2023-01-09T15:42:35;8.30;99.90
21811;DHT22;11067;48.788;9.208;2023-01-09T15:45:41;8.30;99.90
21811;DHT22;11067;48.788;9.208;2023-01-09T15:51:12;8.20;99.90
21811;DHT22;11067;48.788;9.208;2023-01-09T15:53:40;8.20;99.90
21811;DHT22;11067;48.788;9.208;2023-01-09T15:58:39;8.10;99.90
21811;DHT22;11067;48.788;9.208;2023-01-09T16:01:24;7.60;99.90
21811;DHT22;11067;48.788;9.208;2023-01-09T16:03:55;7.20;99.90
21811;DHT22;11067;48.788;9.208;2023-01-09T16:06:25;6.70;99.90
21811;DHT22;11067;48.788;9.208;2023-01-09T16:08:53;6.60;99.90
21811;DHT22;11067;48.788;9.208;2023-01-09T16:11:26;6.60;99.90
21811;DHT22;11067;48.788;9.208;2023-01-09T16:13:54;6.40;99.90
21811;DHT22;11067;48.788;9.208;2023-01-09T16:16:24;6.50;99.90
21811;DHT22;11067;48.788;9.208;2023-01-09T16:18:51;6.40;99.90
21811;DHT22;11067;48.788;9.208;2023-01-09T16:21:22;6.30;99.90
21811;DHT22;11067;48.788;9.208;2023-01-09T16:23:59;6.30;99.90
21811;DHT22;11067;48.788;9.208;2023-01-09T16:26:27;6.30;99.90
21811;DHT22;11067;48.788;9.208;2023-01-09T16:28:54;6.30;99.90
21811;DHT22;11067;48.788;9.208;2023-01-09T16:31:29;6.30;99.90
21811;DHT22;11067;48.788;9.208;2023-01-09T16:34:02;6.20;99.90
21811;DHT22;11067;48.788;9.208;2023-01-09T16:36:32;6.30;99.90
21811;DHT22;11067;48.788;9.208;2023-01-09T16:38:58;6.30;99.90
21811;DHT22;11067;48.788;9.208;2023-01-09T16:41:25;6.30;99.90
21811;DHT22;11067;48.788;9.208;2023-01-09T16:44:10;6.30;99.90
21811;DHT22;11067;48.788;9.208;2023-01-09T16:46:38;6.40;99.90
21811;DHT22;11067;48.788;9.208;2023-01-09T16:49:16;6.40;99.90
21811;DHT22;11067;48.788;9.208;2023-01-09T16:51:42;6.50;99.90
21811;DHT22;11067;48.788;9.208;2023-01-09T16:54:08;6.40;99.90
21811;DHT22;11067;48.788;9.208;2023-01-09T16:56:34;6.50;99.90
21811;DHT22;11067;48.788;9.208;2023-01-09T16:59:00;6.60;99.90
21811;DHT22;11067;48.788;9.208;2023-01-09T17:01:26;6.60;99.90
21811;DHT22;11067;48.788;9.208;2023-01-09T17:03:51;6.70;99.90
21811;DHT22;11067;48.788;9.208;2023-01-09T17:06:29;6.70;99.90
21811;DHT22;11067;48.788;9.208;2023-01-09T17:08:55;6.70;99.90
21811;DHT22;11067;48.788;9.208;2023-01-09T17:11:26;6.70;99.90
21811;DHT22;11067;48.788;9.208;2023-01-09T17:13:59;6.70;99.90
21811;DHT22;11067;48.788;9.208;2023-01-09T17:16:25;6.70;99.90
21811;DHT22;11067;48.788;9.208;2023-01-09T17:18:50;6.60;99.90
21811;DHT22;11067;48.788;9.208;2023-01-09T17:21:22;6.60;99.90
21811;DHT22;11067;48.788;9.208;2023-01-09T17:23:48;6.50;99.90
21811;DHT22;11067;48.788;9.208;2023-01-09T17:26:37;6.50;99.90
21811;DHT22;11067;48.788;9.208;2023-01-09T17:29:23;6.40;99.90
21811;DHT22;11067;48.788;9.208;2023-01-09T17:31:48;6.30;99.90
21811;DHT22;11067;48.788;9.208;2023-01-09T17:34:14;6.30;99.90
21811;DHT22;11067;48.788;9.208;2023-01-09T17:36:39;6.30;99.90
21811;DHT22;11067;48.788;9.208;2023-01-09T17:39:05;6.20;99.90
21811;DHT22;11067;48.788;9.208;2023-01-09T17:41:31;6.20;99.90
21811;DHT22;11067;48.788;9.208;2023-01-09T17:43:58;6.20;99.90
21811;DHT22;11067;48.788;9.208;2023-01-09T17:46:29;6.10;99.90
21811;DHT22;11067;48.788;9.208;2023-01-09T17:48:56;6.10;99.90
21811;DHT22;11067;48.788;9.208;2023-01-09T17:51:21;6.20;99.90
21811;DHT22;11067;48.788;9.208;2023-01-09T17:53:47;6.10;99.90